Latest Weather Observations for Innisfail Aero

IDQ60801

Issued at 2:52 pm EST Monday 23 September 2019 (issued every 10 minutes, with the page automatically refreshed every 10 minutes)

About weather observations | Map of weather stations | Latest weather observations for QLD | Other Formats
Station Details ID: 032197 Name: INNISFAIL AERODROME Lat: -17.56 Lon: 146.01 Height: 11.84 m
Data from the previous 72 hours. | See also: Recent months at Innisfail Aero
Date/Time
EST
Temp
°C
App
Temp
°C
Dew
Point
°C
Rel
Hum
%
Delta-T
°C
Wind Press
QNH
hPa
Press
MSL
hPa
Rain since
9am
mm
Dir  Spd
km/h
Gust
km/h
Spd
kts
Gust
kts
23/02:30pm 25.5 24.0 17.7 62 4.9 SSW 22 30 12 16 1019.4 1019.4 0.2
23/02:00pm 26.3 24.4 17.6 58 5.5 SSW 24 32 13 17 1019.5 1019.5 0.2
23/01:30pm 25.6 23.4 17.0 59 5.3 S 24 35 13 19 1019.8 1019.8 0.2
23/01:00pm 27.0 25.3 18.0 58 5.7 S 24 35 13 19 1020.1 1020.1 0.2
23/12:30pm 24.6 24.6 20.9 80 2.4 S 22 32 12 17 1020.5 1020.5 0.2
23/12:00pm 25.6 24.1 18.5 65 4.5 S 24 32 13 17 1020.8 1020.8 0.2
23/11:30am 26.1 24.6 18.5 63 4.8 S 24 32 13 17 1021.2 1021.2 0.2
23/11:00am 24.6 24.1 19.2 72 3.4 S 20 28 11 15 1021.8 1021.8 0.2
23/10:30am 24.4 23.6 19.2 73 3.3 S 22 28 12 15 1022.1 1022.1 0.2
23/10:00am 24.6 24.1 19.2 72 3.4 SSE 20 26 11 14 1022.2 1022.2 0.2
23/09:30am 24.3 23.8 19.1 73 3.3 SSE 20 28 11 15 1022.1 1022.1 0.2
23/09:00am 23.7 24.9 20.0 80 2.4 S 13 19 7 10 1022.2 1022.2 -
23/08:30am 23.1 24.3 19.9 82 2.1 SSW 13 17 7 9 1022.3 1022.3 -
23/08:00am 23.1 24.4 20.1 83 1.9 SW 13 19 7 10 1022.0 1022.0 -
23/07:30am 22.0 24.5 20.3 90 1.1 SW 7 13 4 7 1021.9 1021.9 -
23/07:00am 20.1 22.0 19.8 98 0.2 WSW 9 9 5 5 1021.6 1021.6 -
23/06:30am 19.3 22.5 18.8 97 0.3 CALM 0 0 0 0 1021.5 1021.5 -
23/06:00am 19.4 21.1 18.6 95 0.5 SW 7 11 4 6 1021.1 1021.1 -
23/05:30am 20.1 21.0 19.3 95 0.5 SSW 13 17 7 9 1020.9 1020.9 -
23/05:04am 20.1 21.4 19.3 95 0.5 SSE 11 13 6 7 1020.9 1020.9 -
23/05:00am 20.0 21.3 19.3 96 0.4 SSE 11 15 6 8 1021.0 1021.0 -
23/04:38am 20.2 20.3 20.0 99 0.1 SE 19 30 10 16 1020.8 1020.8 -
23/04:30am 18.4 20.5 18.1 98 0.2 N 4 13 2 7 1020.7 1020.7 -
23/04:00am 19.2 20.6 18.7 97 0.3 SW 9 11 5 6 1020.4 1020.4 -
23/03:30am 19.4 21.0 19.1 98 0.2 SSW 9 13 5 7 1020.5 1020.5 -
23/03:12am 19.1 20.6 18.8 98 0.2 SSW 9 11 5 6 1020.5 1020.5 -
23/03:00am 18.9 21.6 18.6 98 0.2 W 2 7 1 4 1020.5 1020.5 0.2
23/02:30am 19.2 22.3 18.7 97 0.3 CALM 0 2 0 1 1020.8 1020.8 -
23/02:19am 19.3 21.7 18.8 97 0.3 S 4 6 2 3 1020.9 1020.9 -
23/02:13am 19.4 21.8 18.9 97 0.3 SSE 4 6 2 3 1020.9 1020.9 -
23/02:00am 19.6 21.8 19.3 98 0.2 S 6 7 3 4 1021.0 1021.0 -
23/01:55am 19.6 21.8 19.3 98 0.2 SW 6 7 3 4 1021.0 1021.0 -
23/01:30am 19.3 20.8 19.0 98 0.2 SW 9 9 5 5 1021.3 1021.3 -
23/01:22am 19.3 21.1 18.8 97 0.3 SW 7 9 4 5 1021.4 1021.4 -
23/01:00am 19.2 22.2 18.5 96 0.4 CALM 0 0 0 0 1021.6 1021.6 -
23/12:30am 20.2 22.4 19.5 96 0.4 WSW 7 9 4 5 1022.0 1022.0 -
23/12:21am 20.1 22.0 19.8 98 0.2 WSW 9 11 5 6 1022.0 1022.0 -
23/12:00am 19.4 21.5 19.4 100 0.0 WSW 7 9 4 5 1022.1 1022.1 -
 
Date/Time
EST
Temp
°C
App
Temp
°C
Dew
Point
°C
Rel
Hum
%
Delta-T
°C
Wind Press
QNH
hPa
Press
MSL
hPa
Rain since
9am
mm
Dir  Spd
km/h
Gust
km/h
Spd
kts
Gust
kts
22/11:30pm 17.5 18.8 17.0 97 0.3 NW 6 7 3 4 1022.5 1022.5 -
22/11:00pm 18.8 20.5 18.1 96 0.4 WSW 6 7 3 4 1022.5 1022.5 -
22/10:30pm 19.1 20.8 18.4 96 0.4 WSW 7 9 4 5 1022.4 1022.4 -
22/10:00pm 19.0 20.2 18.3 96 0.4 WSW 9 11 5 6 1022.5 1022.5 -
22/09:30pm 19.4 21.0 18.2 93 0.7 SSW 7 9 4 5 1022.5 1022.5 -
22/09:00pm 20.4 21.4 18.7 90 1.1 SSW 11 15 6 8 1022.3 1022.3 0.0
22/08:30pm 20.6 22.1 18.9 90 1.1 SSW 9 11 5 6 1022.0 1022.0 -
22/08:00pm 21.8 22.7 19.2 85 1.6 SSW 13 17 7 9 1021.4 1021.4 -
22/07:30pm 22.4 23.5 19.6 84 1.8 SSW 13 15 7 8 1021.3 1021.3 -
22/07:00pm 22.3 23.7 19.5 84 1.8 SSW 11 13 6 7 1021.0 1021.0 -
22/06:30pm 22.3 22.7 19.1 82 2.0 SSW 15 20 8 11 1020.6 1020.6 -
22/06:00pm 22.8 22.2 18.8 78 2.5 S 20 26 11 14 1020.4 1020.4 -
22/05:30pm 24.0 23.3 18.6 72 3.4 SSE 20 28 11 15 1020.2 1020.2 -
22/05:00pm 24.4 23.0 18.8 71 3.5 S 24 32 13 17 1019.9 1019.9 -
22/04:30pm 24.5 22.8 18.2 68 4.0 S 24 30 13 16 1019.7 1019.7 -
22/04:00pm 24.6 22.5 17.1 63 4.6 S 24 32 13 17 1019.5 1019.5 -
22/03:30pm 26.2 23.9 17.6 59 5.4 S 26 33 14 18 1019.4 1019.4 -
22/03:00pm 26.0 23.9 17.1 58 5.5 S 24 32 13 17 1019.5 1019.5 -
22/02:30pm 27.1 24.4 15.5 49 7.1 S 24 37 13 20 1019.6 1019.6 -
22/02:00pm 27.2 25.1 16.2 51 6.8 S 22 33 12 18 1019.9 1019.9 -
22/01:30pm 26.4 23.8 14.8 49 7.0 SSE 22 33 12 18 1020.3 1020.3 -
22/12:30pm 27.0 24.3 16.6 53 6.4 SSE 26 37 14 20 1020.5 1020.5 0.0
22/12:00pm 26.3 22.7 14.1 47 7.2 S 26 35 14 19 1020.7 1020.7 0.0
22/11:30am 27.4 25.1 15.7 48 7.2 S 22 33 12 18 1021.0 1021.0 0.0
22/11:00am 27.1 24.9 17.8 56 5.9 SSE 26 33 14 18 1021.3 1021.3 0.0
22/10:30am 25.8 23.7 16.1 55 5.9 SSE 22 32 12 17 1021.4 1021.4 0.0
22/10:00am 26.5 24.0 16.1 52 6.4 S 24 33 13 18 1021.3 1021.3 0.0
22/09:30am 25.6 23.9 18.0 63 4.8 S 24 32 13 17 1021.2 1021.2 0.0
22/09:00am 24.9 23.4 17.6 64 4.5 S 22 30 12 16 1021.3 1021.3 2.0
22/08:30am 22.8 25.6 19.6 82 2.0 NE 4 7 2 4 1021.3 1021.3 2.0
22/08:00am 20.4 22.9 19.9 97 0.3 WNW 6 7 3 4 1021.1 1021.1 0.6
22/07:30am 19.0 21.1 19.0 100 0.0 N 6 7 3 4 1020.9 1020.9 0.6
22/07:00am 18.2 21.1 18.2 100 0.0 CALM 0 0 0 0 1020.7 1020.7 0.6
22/06:30am 17.8 19.8 17.8 100 0.0 NW 4 7 2 4 1020.2 1020.2 0.6
22/06:00am 17.3 19.8 17.3 100 0.0 CALM 0 0 0 0 1020.0 1020.0 0.6
22/05:30am 16.9 19.3 16.9 100 0.0 CALM 0 0 0 0 1019.7 1019.7 0.6
22/05:11am 16.7 19.0 16.7 100 0.0 CALM 0 0 0 0 1019.7 1019.7 0.6
22/05:00am 16.9 19.3 16.9 100 0.0 CALM 0 0 0 0 1019.5 1019.5 0.6
22/04:30am 16.9 19.3 16.9 100 0.0 CALM 0 0 0 0 1019.3 1019.3 0.6
22/04:00am 16.8 19.1 16.8 100 0.0 CALM 0 0 0 0 1019.0 1019.0 0.6
22/03:30am 16.6 18.8 16.4 99 0.1 CALM 0 0 0 0 1018.8 1018.8 0.6
22/03:17am 17.3 19.8 17.3 100 0.0 CALM 0 0 0 0 1018.7 1018.7 0.6
22/03:00am 17.4 20.0 17.4 100 0.0 CALM 0 0 0 0 1018.7 1018.7 0.6
22/02:46am 17.1 18.3 16.9 99 0.1 W 6 9 3 5 1018.7 1018.7 0.6
22/02:30am 17.5 18.7 17.3 99 0.1 SSW 7 9 4 5 1018.7 1018.7 0.6
22/02:00am 17.7 19.9 17.5 99 0.1 NNW 2 6 1 3 1019.2 1019.2 0.6
22/01:34am 18.2 19.9 18.0 99 0.1 N 6 7 3 4 1019.4 1019.4 0.6
22/01:30am 18.2 19.9 18.0 99 0.1 NNE 6 7 3 4 1019.3 1019.3 0.6
22/01:00am 18.6 21.6 18.4 99 0.1 CALM 0 6 0 3 1019.5 1019.5 0.6
22/12:30am 18.7 21.7 18.5 99 0.1 CALM 0 0 0 0 1019.8 1019.8 0.6
22/12:17am 18.8 21.9 18.6 99 0.1 CALM 0 0 0 0 1019.9 1019.9 0.4
22/12:00am 18.4 20.1 18.1 98 0.2 NNW 6 7 3 4 1020.1 1020.1 0.4
 
Date/Time
EST
Temp
°C
App
Temp
°C
Dew
Point
°C
Rel
Hum
%
Delta-T
°C
Wind Press
QNH
hPa
Press
MSL
hPa
Rain since
9am
mm
Dir  Spd
km/h
Gust
km/h
Spd
kts
Gust
kts
21/11:55pm 18.4 20.1 18.1 98 0.2 NNW 6 7 3 4 1020.2 1020.2 0.4
21/11:30pm 18.6 20.2 17.9 96 0.4 WNW 6 6 3 3 1020.2 1020.2 0.4
21/11:00pm 19.2 22.1 18.2 94 0.6 CALM 0 0 0 0 1020.2 1020.2 0.4
21/10:30pm 19.8 21.6 18.8 94 0.6 WSW 7 9 4 5 1020.2 1020.2 0.2
21/10:00pm 20.3 21.8 19.0 92 0.8 WSW 9 11 5 6 1020.4 1020.4 0.2
21/09:30pm 20.6 22.6 19.1 91 0.9 WSW 7 9 4 5 1020.5 1020.5 0.2
21/09:15pm 20.5 23.1 19.2 92 0.8 WSW 4 9 2 5 1020.4 1020.4 0.2
21/09:00pm 20.9 23.8 19.0 89 1.2 WSW 2 24 1 13 1020.4 1020.4 0.0
21/08:58pm 20.4 23.7 19.1 92 0.8 CALM 0 0 0 0 1020.4 1020.4 0.0
21/08:30pm 20.6 24.0 19.3 92 0.8 CALM 0 0 0 0 1019.9 1019.9 0.0
21/08:00pm 20.5 23.8 19.0 91 0.9 CALM 0 0 0 0 1019.6 1019.6 0.0
21/07:30pm 20.4 22.4 18.7 90 1.1 WSW 6 7 3 4 1019.2 1019.2 0.0
21/07:00pm 20.9 21.9 18.7 87 1.4 SSW 11 13 6 7 1019.0 1019.0 0.0
21/06:30pm 21.4 21.2 18.6 84 1.8 S 17 20 9 11 1018.8 1018.8 0.0
21/06:00pm 21.9 24.0 19.3 85 1.6 WSW 7 9 4 5 1018.7 1018.7 0.0
21/05:30pm 22.2 24.5 19.4 84 1.8 S 6 7 3 4 1018.4 1018.4 0.0
21/05:00pm 21.4 23.3 19.0 86 1.5 SE 7 9 4 5 1018.2 1018.2 0.0
21/04:30pm 21.7 21.3 19.4 87 1.5 SE 20 26 11 14 1018.2 1018.2 0.0
21/04:00pm 22.5 22.4 18.7 79 2.4 SSE 17 24 9 13 1017.9 1017.9 0.0
21/03:30pm 22.8 21.0 18.8 78 2.5 SSE 26 35 14 19 1017.9 1017.9 0.0
21/03:15pm 24.4 21.6 17.4 65 4.4 SSE 28 46 15 25 1017.7 1017.7 0.0
21/03:00pm 26.5 24.5 19.1 64 4.7 S 28 35 15 19 1017.7 1017.7 0.0
21/02:30pm 26.5 24.9 19.1 64 4.8 S 26 35 14 19 1017.9 1017.9 0.0
21/02:00pm 26.6 24.2 17.4 57 5.8 S 26 35 14 19 1018.3 1018.3 0.0
21/01:30pm 26.6 23.9 18.5 61 5.2 S 30 39 16 21 1018.4 1018.4 0.0
21/01:00pm 26.1 24.1 16.4 55 6.0 S 22 43 12 23 1018.9 1018.9 0.0
21/12:30pm 25.8 23.3 16.1 55 5.9 S 24 33 13 18 1019.2 1019.2 0.0
21/12:00pm 25.8 23.7 16.1 55 5.9 SSE 22 30 12 16 1019.6 1019.6 0.0
21/11:30am 25.7 22.7 14.8 51 6.5 S 24 39 13 21 1020.0 1020.0 0.0
21/11:00am 27.1 25.1 15.5 49 7.1 SSE 20 32 11 17 1020.2 1020.2 0.0
21/10:30am 27.0 24.6 14.4 46 7.5 SSE 20 32 11 17 1020.4 1020.4 0.0
21/10:00am 27.0 25.8 17.5 56 6.0 SSE 20 30 11 16 1020.6 1020.6 0.0
21/09:30am 25.6 23.8 15.6 54 6.1 SSE 19 26 10 14 1020.6 1020.6 0.0
21/09:00am 25.3 24.1 16.2 57 5.6 SSE 17 24 9 13 1020.9 1020.9 0.4
21/08:30am 24.7 23.8 17.7 65 4.4 S 19 22 10 12 1020.8 1020.8 0.4
21/08:00am 22.7 24.9 19.5 82 2.0 SW 7 9 4 5 1020.6 1020.6 0.4
21/07:30am 21.7 24.1 20.0 90 1.1 SW 7 9 4 5 1020.2 1020.2 0.4
21/07:00am 20.6 22.3 19.4 93 0.8 SW 9 11 5 6 1019.9 1019.9 0.4
21/06:30am 19.6 21.7 19.3 98 0.2 SW 7 11 4 6 1019.6 1019.6 0.4
21/06:00am 19.3 20.8 19.0 98 0.2 WSW 9 11 5 6 1019.2 1019.2 0.4
21/05:30am 19.3 22.2 19.0 98 0.2 W 2 7 1 4 1019.2 1019.2 0.4
21/05:00am 19.5 22.8 19.2 98 0.2 CALM 0 0 0 0 1019.0 1019.0 0.2
21/04:30am 19.5 22.8 19.2 98 0.2 CALM 0 0 0 0 1018.7 1018.7 0.2
21/04:00am 19.6 23.0 19.3 98 0.2 CALM 0 0 0 0 1018.7 1018.7 0.2
21/03:30am 19.7 22.3 19.2 97 0.3 W 4 7 2 4 1018.6 1018.6 0.2
21/03:00am 19.8 23.2 19.3 97 0.3 CALM 0 0 0 0 1018.6 1018.6 0.2
21/02:30am 19.9 22.2 19.4 97 0.3 NW 6 7 3 4 1018.7 1018.7 0.2
21/02:00am 20.0 22.1 19.3 96 0.4 WSW 7 9 4 5 1018.9 1018.9 0.2
21/01:30am 20.3 22.7 19.6 96 0.4 WNW 6 9 3 5 1019.0 1019.0 0.2
21/01:00am 20.5 22.4 19.7 95 0.5 W 9 11 5 6 1019.1 1019.1 0.2
21/12:30am 20.5 22.4 19.7 95 0.5 W 9 11 5 6 1019.2 1019.2 0.2
21/12:00am 20.6 22.9 19.8 95 0.5 WNW 7 9 4 5 1019.3 1019.3 0.2
 
Date/Time
EST
Temp
°C
App
Temp
°C
Dew
Point
°C
Rel
Hum
%
Delta-T
°C
Wind Press
QNH
hPa
Press
MSL
hPa
Rain since
9am
mm
Dir  Spd
km/h
Gust
km/h
Spd
kts
Gust
kts
20/11:30pm 21.0 23.2 19.3 90 1.1 SE 6 11 3 6 1019.3 1019.3 0.2
20/11:00pm 21.0 22.8 19.5 91 1.0 SW 9 17 5 9 1019.5 1019.5 0.2
20/10:30pm 21.5 23.7 19.6 89 1.2 SW 7 11 4 6 1019.7 1019.7 0.2
20/10:00pm 21.1 23.5 19.6 91 1.0 SW 6 9 3 5 1019.7 1019.7 0.2
20/09:30pm 21.4 23.9 19.9 91 1.0 WSW 6 7 3 4 1019.6 1019.6 0.2
20/09:00pm 21.6 23.9 19.9 90 1.1 SSW 7 9 4 5 1019.4 1019.4 0.2
20/08:30pm 21.4 23.5 20.2 93 0.8 SW 9 13 5 7 1019.2 1019.2 0.2
20/08:00pm 21.5 24.0 19.8 90 1.1 SE 6 7 3 4 1018.9 1018.9 0.2
20/07:30pm 21.7 23.6 19.8 89 1.2 SW 9 13 5 7 1018.7 1018.7 0.2
20/07:00pm 22.2 23.1 19.2 83 1.9 S 13 20 7 11 1018.3 1018.3 0.0
20/06:30pm 22.3 22.2 18.7 80 2.3 S 17 20 9 11 1017.9 1017.9 0.0
20/06:00pm 22.8 22.1 18.6 77 2.6 S 20 28 11 15 1017.6 1017.6 0.0
20/05:30pm 23.2 22.4 18.5 75 3.0 SSE 20 26 11 14 1017.4 1017.4 0.0
20/05:00pm 23.8 22.0 18.7 73 3.2 SSE 26 35 14 19 1017.3 1017.3 0.0
20/04:30pm 25.4 23.6 18.8 67 4.2 SSE 26 32 14 17 1017.0 1017.0 0.0
20/04:00pm 26.2 23.3 18.9 64 4.7 S 32 39 17 21 1016.8 1016.8 0.0
20/03:30pm 25.4 23.0 18.3 65 4.5 S 28 35 15 19 1016.9 1016.9 0.0
20/03:00pm 26.2 23.4 17.3 58 5.6 S 28 35 15 19 1016.9 1016.9 0.0

Other formats

Comma delimited format used in spreadsheet applications
http://www.bom.gov.au/fwo/IDQ60801/IDQ60801.94280.axf

JavaScript Object Notation format (JSON) in row-major order
http://www.bom.gov.au/fwo/IDQ60801/IDQ60801.94280.json

Data quality

Most of these data are generated automatically and are frequently updated. Quality checks on data are not normally performed. It is possible for incorrect values to appear. Refer to information at About Latest Weather Observations and please check the disclaimer before using these data.